createdAt,value
2023-04-16T00:00:47.058Z,1007.72
2023-04-16T00:01:46.229Z,1007.73
2023-04-16T00:02:46.243Z,1007.76
2023-04-16T00:03:46.441Z,1007.79
2023-04-16T00:04:46.123Z,1007.77
2023-04-16T00:05:46.109Z,1007.78
2023-04-16T00:06:46.088Z,1007.81
2023-04-16T00:07:46.074Z,1007.77
2023-04-16T00:08:46.112Z,1007.78
2023-04-16T00:09:46.066Z,1007.77
2023-04-16T00:10:46.037Z,1007.77
2023-04-16T00:11:46.509Z,1007.79
2023-04-16T00:12:46.101Z,1007.76
2023-04-16T00:13:46.036Z,1007.81
2023-04-16T00:14:46.018Z,1007.80
2023-04-16T00:15:46.145Z,1007.82
2023-04-16T00:16:46.114Z,1007.81
2023-04-16T00:17:46.074Z,1007.80
2023-04-16T00:18:45.970Z,1007.76
2023-04-16T00:19:45.969Z,1007.77
2023-04-16T00:20:45.979Z,1007.82
2023-04-16T00:21:45.944Z,1007.75
2023-04-16T00:22:46.169Z,1007.79
2023-04-16T00:23:45.901Z,1007.78
2023-04-16T00:24:45.907Z,1007.73
2023-04-16T00:25:45.905Z,1007.80
2023-04-16T00:26:46.005Z,1007.82
2023-04-16T00:27:45.900Z,1007.82
2023-04-16T00:28:45.878Z,1007.83
2023-04-16T00:29:45.839Z,1007.82
2023-04-16T00:30:45.851Z,1007.78
2023-04-16T00:31:45.943Z,1007.81
2023-04-16T00:32:45.912Z,1007.78
2023-04-16T00:33:45.837Z,1007.80
2023-04-16T00:34:45.815Z,1007.72
2023-04-16T00:35:45.807Z,1007.77
2023-04-16T00:36:45.786Z,1007.79
2023-04-16T00:37:45.764Z,1007.77
2023-04-16T00:38:45.800Z,1007.79
2023-04-16T00:39:45.773Z,1007.75
2023-04-16T00:40:45.785Z,1007.77
2023-04-16T00:41:45.722Z,1007.76
2023-04-16T00:42:45.819Z,1007.77
2023-04-16T00:43:45.758Z,1007.78
2023-04-16T00:44:45.699Z,1007.77
2023-04-16T00:45:45.758Z,1007.79
2023-04-16T00:46:45.751Z,1007.80
2023-04-16T00:47:45.773Z,1007.82
2023-04-16T00:48:45.683Z,1007.83
2023-04-16T00:49:45.653Z,1007.85
2023-04-16T00:50:45.646Z,1007.87
2023-04-16T00:51:45.628Z,1007.86
2023-04-16T00:52:45.683Z,1007.88
2023-04-16T00:53:45.639Z,1007.86
2023-04-16T00:54:45.602Z,1007.89
2023-04-16T00:55:45.595Z,1007.87
2023-04-16T00:56:45.608Z,1007.91
2023-04-16T00:57:45.573Z,1007.94
2023-04-16T00:58:45.594Z,1007.93
2023-04-16T00:59:45.580Z,1007.93
2023-04-16T01:00:45.530Z,1007.92
2023-04-16T01:01:45.581Z,1007.95
2023-04-16T01:02:45.588Z,1007.93
2023-04-16T01:03:45.520Z,1007.90
2023-04-16T01:04:45.521Z,1007.92
2023-04-16T01:05:45.494Z,1007.92
2023-04-16T01:06:45.539Z,1007.93
2023-04-16T01:07:45.457Z,1007.93
2023-04-16T01:08:45.477Z,1007.94
2023-04-16T01:09:45.441Z,1007.93
2023-04-16T01:10:45.466Z,1007.94
2023-04-16T01:11:45.416Z,1007.95
2023-04-16T01:12:45.418Z,1007.98
2023-04-16T01:13:45.449Z,1007.98
2023-04-16T01:14:45.380Z,1007.96
2023-04-16T01:15:45.448Z,1007.93
2023-04-16T01:16:45.505Z,1007.96
2023-04-16T01:17:45.410Z,1007.99
2023-04-16T01:18:45.347Z,1008.00
2023-04-16T01:19:45.373Z,1008.07
2023-04-16T01:20:45.380Z,1008.00
2023-04-16T01:21:45.331Z,1008.02
2023-04-16T01:22:45.338Z,1008.00
2023-04-16T01:23:45.338Z,1008.02
2023-04-16T01:24:45.352Z,1008.00
2023-04-16T01:25:45.290Z,1008.04
2023-04-16T01:26:45.304Z,1008.03
2023-04-16T01:27:45.495Z,1008.02
2023-04-16T01:28:45.290Z,1008.03
2023-04-16T01:29:45.237Z,1008.07
2023-04-16T01:30:45.266Z,1008.04
2023-04-16T01:31:45.293Z,1008.05
2023-04-16T01:32:45.249Z,1008.03
2023-04-16T01:33:45.208Z,1008.02
2023-04-16T01:34:45.207Z,1008.07
2023-04-16T01:35:45.122Z,1008.06
2023-04-16T01:36:45.168Z,1008.06
2023-04-16T01:37:45.247Z,1008.05
2023-04-16T01:38:45.187Z,1008.06
2023-04-16T01:39:45.139Z,1008.08
2023-04-16T01:40:45.136Z,1008.04
2023-04-16T01:41:45.126Z,1008.09
2023-04-16T01:42:45.094Z,1008.05
2023-04-16T01:43:45.130Z,1008.04
2023-04-16T01:44:45.074Z,1008.07
2023-04-16T01:45:45.074Z,1008.06
2023-04-16T01:46:45.091Z,1008.00
2023-04-16T01:47:45.107Z,1008.05
2023-04-16T01:48:45.169Z,1008.08
2023-04-16T01:49:45.101Z,1008.02
2023-04-16T01:50:45.013Z,1008.07
2023-04-16T01:51:45.033Z,1008.13
2023-04-16T01:52:45.027Z,1008.07
2023-04-16T01:53:45.031Z,1008.06
2023-04-16T01:54:45.032Z,1008.15
2023-04-16T01:55:44.990Z,1008.19
2023-04-16T01:56:45.009Z,1008.09
2023-04-16T01:57:44.953Z,1008.14
2023-04-16T01:58:44.968Z,1008.13
2023-04-16T01:59:44.928Z,1008.12
2023-04-16T02:00:44.967Z,1008.09
2023-04-16T02:01:44.981Z,1008.12
2023-04-16T02:02:45.105Z,1008.11
2023-04-16T02:03:45.104Z,1008.12
2023-04-16T02:04:44.991Z,1008.12
2023-04-16T02:05:44.902Z,1008.11
2023-04-16T02:06:44.895Z,1008.14
2023-04-16T02:07:44.945Z,1008.11
2023-04-16T02:08:44.834Z,1008.14
2023-04-16T02:09:44.838Z,1008.12
2023-04-16T02:10:44.840Z,1008.07
2023-04-16T02:11:44.837Z,1008.13
2023-04-16T02:12:44.800Z,1008.14
2023-04-16T02:13:44.805Z,1008.13
2023-04-16T02:14:44.781Z,1008.13
2023-04-16T02:15:44.781Z,1008.11
2023-04-16T02:16:44.820Z,1008.10
2023-04-16T02:17:44.776Z,1008.12
2023-04-16T02:18:44.798Z,1008.12
2023-04-16T02:19:44.728Z,1008.13
2023-04-16T02:20:44.747Z,1008.17
2023-04-16T02:21:44.704Z,1008.16
2023-04-16T02:22:44.718Z,1008.16
2023-04-16T02:23:44.730Z,1008.17
2023-04-16T02:24:44.701Z,1008.23
2023-04-16T02:25:44.703Z,1008.26
2023-04-16T02:26:44.644Z,1008.29
2023-04-16T02:27:44.697Z,1008.26
2023-04-16T02:28:44.620Z,1008.28
2023-04-16T02:29:44.624Z,1008.29
2023-04-16T02:30:44.679Z,1008.33
2023-04-16T02:31:44.708Z,1008.34
2023-04-16T02:32:44.738Z,1008.33
2023-04-16T02:33:44.621Z,1008.31
2023-04-16T02:34:44.563Z,1008.33
2023-04-16T02:35:44.568Z,1008.34
2023-04-16T02:36:44.620Z,1008.33
2023-04-16T02:37:44.578Z,1008.32
2023-04-16T02:38:44.567Z,1008.31
2023-04-16T02:39:44.610Z,1008.29
2023-04-16T02:40:44.522Z,1008.32
2023-04-16T02:41:44.785Z,1008.34
2023-04-16T02:42:44.538Z,1008.37
2023-04-16T02:43:44.499Z,1008.34
2023-04-16T02:44:44.494Z,1008.35
2023-04-16T02:45:44.611Z,1008.36
2023-04-16T02:46:44.463Z,1008.26
2023-04-16T02:47:44.507Z,1008.31
2023-04-16T02:48:44.444Z,1008.37
2023-04-16T02:49:44.520Z,1008.32
2023-04-16T02:50:44.407Z,1008.28
2023-04-16T02:51:44.454Z,1008.32
2023-04-16T02:52:44.415Z,1008.32
2023-04-16T02:53:44.527Z,1008.34
2023-04-16T02:54:44.377Z,1008.31
2023-04-16T02:55:44.395Z,1008.29
2023-04-16T02:56:44.377Z,1008.34
2023-04-16T02:57:44.355Z,1008.33
2023-04-16T02:58:45.106Z,1008.31
2023-04-16T02:59:44.347Z,1008.34
2023-04-16T03:00:44.311Z,1008.36
2023-04-16T03:01:44.360Z,1008.31
2023-04-16T03:02:45.057Z,1008.34
2023-04-16T03:03:44.366Z,1008.34
2023-04-16T03:04:44.340Z,1008.36
2023-04-16T03:05:44.300Z,1008.33
2023-04-16T03:06:44.273Z,1008.36
2023-04-16T03:07:44.287Z,1008.36
2023-04-16T03:08:44.603Z,1008.36
2023-04-16T03:09:44.263Z,1008.36
2023-04-16T03:10:44.333Z,1008.30
2023-04-16T03:11:44.211Z,1008.35
2023-04-16T03:12:44.208Z,1008.35
2023-04-16T03:13:44.195Z,1008.34
2023-04-16T03:14:44.600Z,1008.33
2023-04-16T03:15:44.196Z,1008.33
2023-04-16T03:16:44.271Z,1008.34
2023-04-16T03:17:44.709Z,1008.35
2023-04-16T03:18:44.148Z,1008.34
2023-04-16T03:19:44.126Z,1008.34
2023-04-16T03:20:44.201Z,1008.29
2023-04-16T03:21:44.084Z,1008.31
2023-04-16T03:22:44.097Z,1008.30
2023-04-16T03:23:44.138Z,1008.28
2023-04-16T03:24:44.069Z,1008.30
2023-04-16T03:25:44.065Z,1008.26
2023-04-16T03:26:44.084Z,1008.28
2023-04-16T03:27:44.039Z,1008.28
2023-04-16T03:28:44.028Z,1008.27
2023-04-16T03:29:44.134Z,1008.25
2023-04-16T03:30:44.516Z,1008.26
2023-04-16T03:31:44.079Z,1008.29
2023-04-16T03:32:44.000Z,1008.30
2023-04-16T03:33:44.046Z,1008.33
2023-04-16T03:34:43.987Z,1008.32
2023-04-16T03:35:43.966Z,1008.32
2023-04-16T03:36:44.191Z,1008.31
2023-04-16T03:37:43.922Z,1008.35
2023-04-16T03:38:43.980Z,1008.37
2023-04-16T03:39:43.948Z,1008.33
2023-04-16T03:40:43.943Z,1008.37
2023-04-16T03:41:43.918Z,1008.40
2023-04-16T03:42:43.887Z,1008.39
2023-04-16T03:43:44.632Z,1008.40
2023-04-16T03:44:43.849Z,1008.43
2023-04-16T03:45:43.960Z,1008.44
2023-04-16T03:46:43.877Z,1008.46
2023-04-16T03:47:43.909Z,1008.43
2023-04-16T03:48:43.846Z,1008.41
2023-04-16T03:49:43.902Z,1008.46
2023-04-16T03:50:44.009Z,1008.48
2023-04-16T03:51:43.791Z,1008.45
2023-04-16T03:52:43.785Z,1008.50
2023-04-16T03:53:43.803Z,1008.48
2023-04-16T03:54:43.767Z,1008.51
2023-04-16T03:55:43.756Z,1008.53
2023-04-16T03:56:43.787Z,1008.55
2023-04-16T03:57:43.719Z,1008.56
2023-04-16T03:58:43.761Z,1008.60
2023-04-16T03:59:43.746Z,1008.60
2023-04-16T04:00:43.723Z,1008.62
2023-04-16T04:01:43.736Z,1008.64
2023-04-16T04:02:43.915Z,1008.65
2023-04-16T04:03:44.003Z,1008.62
2023-04-16T04:04:43.720Z,1008.65
2023-04-16T04:05:43.646Z,1008.65
2023-04-16T04:06:44.388Z,1008.65
2023-04-16T04:07:43.667Z,1008.63
2023-04-16T04:08:43.640Z,1008.60
2023-04-16T04:09:43.594Z,1008.64
2023-04-16T04:10:43.585Z,1008.61
2023-04-16T04:11:43.645Z,1008.61
2023-04-16T04:12:43.598Z,1008.60
2023-04-16T04:13:43.612Z,1008.61
2023-04-16T04:14:43.489Z,1008.66
2023-04-16T04:15:43.489Z,1008.69
2023-04-16T04:16:43.648Z,1008.69
2023-04-16T04:17:43.503Z,1008.68
2023-04-16T04:18:44.554Z,1008.68
2023-04-16T04:19:54.236Z,1008.68
2023-04-16T04:20:43.643Z,1008.72
2023-04-16T04:21:43.474Z,1008.73
2023-04-16T04:22:43.405Z,1008.68
2023-04-16T04:23:43.455Z,1008.70
2023-04-16T04:24:43.385Z,1008.71
2023-04-16T04:25:43.423Z,1008.73
2023-04-16T04:26:43.404Z,1008.74
2023-04-16T04:27:43.379Z,1008.73
2023-04-16T04:28:43.345Z,1008.74
2023-04-16T04:29:43.334Z,1008.72
2023-04-16T04:30:43.387Z,1008.73
2023-04-16T04:31:44.039Z,1008.73
2023-04-16T04:32:43.364Z,1008.73
2023-04-16T04:33:43.326Z,1008.69
2023-04-16T04:34:43.360Z,1008.68
2023-04-16T04:35:43.288Z,1008.68
2023-04-16T04:36:43.296Z,1008.66
2023-04-16T04:37:43.300Z,1008.66
2023-04-16T04:38:43.674Z,1008.71
2023-04-16T04:39:43.252Z,1008.70
2023-04-16T04:40:43.600Z,1008.74
2023-04-16T04:41:43.216Z,1008.73
2023-04-16T04:42:43.230Z,1008.71
2023-04-16T04:43:43.211Z,1008.73
2023-04-16T04:44:43.218Z,1008.75
2023-04-16T04:45:43.229Z,1008.76
2023-04-16T04:46:43.192Z,1008.76
2023-04-16T04:47:43.573Z,1008.82
2023-04-16T04:48:43.121Z,1008.82
2023-04-16T04:49:43.186Z,1008.83
2023-04-16T04:50:43.133Z,1008.85
2023-04-16T04:51:43.138Z,1008.86
2023-04-16T04:52:43.159Z,1008.88
2023-04-16T04:53:43.262Z,1008.81
2023-04-16T04:54:43.101Z,1008.83
2023-04-16T04:55:43.079Z,1008.84
2023-04-16T04:56:43.132Z,1008.83
2023-04-16T04:57:43.090Z,1008.83
2023-04-16T04:58:43.124Z,1008.81
2023-04-16T04:59:43.114Z,1008.78
2023-04-16T05:00:43.038Z,1008.79
2023-04-16T05:01:43.016Z,1008.81
2023-04-16T05:02:43.134Z,1008.84
2023-04-16T05:03:43.194Z,1008.82
2023-04-16T05:04:43.169Z,1008.82
2023-04-16T05:05:42.960Z,1008.85
2023-04-16T05:06:43.104Z,1008.90
2023-04-16T05:07:42.972Z,1008.92
2023-04-16T05:08:42.976Z,1008.94
2023-04-16T05:09:43.011Z,1008.94
2023-04-16T05:10:42.952Z,1009.00
2023-04-16T05:11:42.915Z,1009.02
2023-04-16T05:12:42.977Z,1009.03
2023-04-16T05:13:42.886Z,1009.05
2023-04-16T05:14:42.918Z,1009.07
2023-04-16T05:15:43.002Z,1009.06
2023-04-16T05:16:42.930Z,1009.10
2023-04-16T05:17:42.962Z,1009.12
2023-04-16T05:18:42.839Z,1009.11
2023-04-16T05:19:43.052Z,1009.15
2023-04-16T05:20:42.832Z,1009.14
2023-04-16T05:21:42.866Z,1009.14
2023-04-16T05:22:42.842Z,1009.16
2023-04-16T05:23:43.183Z,1009.17
2023-04-16T05:24:42.857Z,1009.16
2023-04-16T05:25:42.794Z,1009.13
2023-04-16T05:26:42.787Z,1009.09
2023-04-16T05:27:42.739Z,1009.03
2023-04-16T05:28:42.841Z,1009.05
2023-04-16T05:29:42.762Z,1009.02
2023-04-16T05:30:42.820Z,1009.01
2023-04-16T05:31:42.908Z,1009.12
2023-04-16T05:32:42.721Z,1009.18
2023-04-16T05:33:42.730Z,1009.22
2023-04-16T05:34:42.824Z,1009.23
2023-04-16T05:35:42.648Z,1009.30
2023-04-16T05:36:42.692Z,1009.31
2023-04-16T05:37:42.653Z,1009.29
2023-04-16T05:38:42.638Z,1009.33
2023-04-16T05:39:42.681Z,1009.32
2023-04-16T05:40:42.772Z,1009.35
2023-04-16T05:41:42.646Z,1009.37
2023-04-16T05:42:42.601Z,1009.37
2023-04-16T05:43:42.600Z,1009.32
2023-04-16T05:44:42.623Z,1009.35
2023-04-16T05:45:42.564Z,1009.37
2023-04-16T05:46:42.588Z,1009.37
2023-04-16T05:47:42.605Z,1009.37
2023-04-16T05:48:42.525Z,1009.37
2023-04-16T05:49:42.570Z,1009.38
2023-04-16T05:50:42.594Z,1009.42
2023-04-16T05:51:42.529Z,1009.40
2023-04-16T05:52:42.503Z,1009.42
2023-04-16T05:53:42.645Z,1009.42
2023-04-16T05:54:42.526Z,1009.47
2023-04-16T05:55:42.467Z,1009.44
2023-04-16T05:56:42.629Z,1009.48
2023-04-16T05:57:42.630Z,1009.48
2023-04-16T05:58:42.416Z,1009.50
2023-04-16T05:59:42.470Z,1009.53
2023-04-16T06:00:42.414Z,1009.43
2023-04-16T06:01:42.383Z,1009.44
2023-04-16T06:02:42.622Z,1009.43
2023-04-16T06:03:42.437Z,1009.43
2023-04-16T06:04:42.480Z,1009.44
2023-04-16T06:05:42.476Z,1009.43
2023-04-16T06:06:42.388Z,1009.42
2023-04-16T06:07:42.335Z,1009.39
2023-04-16T06:08:43.024Z,1009.46
2023-04-16T06:09:42.592Z,1009.45
2023-04-16T06:10:42.307Z,1009.43
2023-04-16T06:11:42.314Z,1009.44
2023-04-16T06:12:42.312Z,1009.45
2023-04-16T06:13:42.310Z,1009.49
2023-04-16T06:14:42.338Z,1009.48
2023-04-16T06:15:42.366Z,1009.43
2023-04-16T06:16:42.356Z,1009.43
2023-04-16T06:17:42.415Z,1009.46
2023-04-16T06:18:42.267Z,1009.47
2023-04-16T06:19:42.321Z,1009.44
2023-04-16T06:20:42.238Z,1009.44
2023-04-16T06:21:42.215Z,1009.43
2023-04-16T06:22:42.188Z,1009.42
2023-04-16T06:23:42.175Z,1009.46
2023-04-16T06:24:42.194Z,1009.45
2023-04-16T06:25:42.138Z,1009.50
2023-04-16T06:26:42.157Z,1009.47
2023-04-16T06:27:42.377Z,1009.46
2023-04-16T06:28:42.118Z,1009.47
2023-04-16T06:29:42.128Z,1009.50
2023-04-16T06:30:44.052Z,1009.46
2023-04-16T06:31:42.248Z,1009.50
2023-04-16T06:32:42.218Z,1009.49
2023-04-16T06:33:42.082Z,1009.51
2023-04-16T06:34:42.068Z,1009.49
2023-04-16T06:35:42.275Z,1009.48
2023-04-16T06:36:42.099Z,1009.49
2023-04-16T06:37:42.037Z,1009.54
2023-04-16T06:38:42.019Z,1009.51
2023-04-16T06:39:42.048Z,1009.57
2023-04-16T06:40:42.563Z,1009.53
2023-04-16T06:41:42.000Z,1009.54
2023-04-16T06:42:43.587Z,1009.58
2023-04-16T06:43:41.963Z,1009.54
2023-04-16T06:44:41.992Z,1009.56
2023-04-16T06:45:41.955Z,1009.55
2023-04-16T06:46:41.996Z,1009.58
2023-04-16T06:47:41.979Z,1009.58
2023-04-16T06:48:42.043Z,1009.62
2023-04-16T06:49:41.962Z,1009.57
2023-04-16T06:50:41.935Z,1009.60
2023-04-16T06:51:41.870Z,1009.64
2023-04-16T06:52:41.916Z,1009.59
2023-04-16T06:53:41.982Z,1009.60
2023-04-16T06:54:42.033Z,1009.59
2023-04-16T06:55:42.518Z,1009.56
2023-04-16T06:56:41.906Z,1009.57
2023-04-16T06:57:41.912Z,1009.61
2023-04-16T06:58:41.851Z,1009.54
2023-04-16T06:59:43.407Z,1009.61
2023-04-16T07:00:41.870Z,1009.57
2023-04-16T07:01:41.782Z,1009.60
2023-04-16T07:02:41.915Z,1009.59
2023-04-16T07:03:42.773Z,1009.56
2023-04-16T07:04:41.750Z,1009.60
2023-04-16T07:05:41.811Z,1009.60
2023-04-16T07:06:41.737Z,1009.63
2023-04-16T07:07:41.764Z,1009.62
2023-04-16T07:08:41.723Z,1009.60
2023-04-16T07:09:41.700Z,1009.66
2023-04-16T07:10:41.738Z,1009.62
2023-04-16T07:11:41.713Z,1009.65
2023-04-16T07:12:41.708Z,1009.66
2023-04-16T07:13:41.648Z,1009.68
2023-04-16T07:14:41.705Z,1009.70
2023-04-16T07:15:41.642Z,1009.71
2023-04-16T07:16:41.739Z,1009.67
2023-04-16T07:17:41.693Z,1009.66
2023-04-16T07:18:41.644Z,1009.66
2023-04-16T07:19:41.702Z,1009.68
2023-04-16T07:20:41.595Z,1009.63
2023-04-16T07:21:41.579Z,1009.64
2023-04-16T07:22:41.617Z,1009.62
2023-04-16T07:23:41.568Z,1009.62
2023-04-16T07:24:41.571Z,1009.64
2023-04-16T07:25:41.580Z,1009.62
2023-04-16T07:26:41.538Z,1009.61
2023-04-16T07:27:41.647Z,1009.60
2023-04-16T07:28:41.519Z,1009.61
2023-04-16T07:29:41.614Z,1009.62
2023-04-16T07:30:42.040Z,1009.62
2023-04-16T07:31:41.556Z,1009.66
2023-04-16T07:32:41.687Z,1009.69
2023-04-16T07:33:41.503Z,1009.70
2023-04-16T07:34:41.491Z,1009.69
2023-04-16T07:35:41.440Z,1009.69
2023-04-16T07:36:41.467Z,1009.71
2023-04-16T07:37:41.412Z,1009.72
2023-04-16T07:38:41.470Z,1009.69
2023-04-16T07:39:41.409Z,1009.73
2023-04-16T07:40:41.603Z,1009.72
2023-04-16T07:41:41.406Z,1009.73
2023-04-16T07:42:41.599Z,1009.75
2023-04-16T07:43:41.380Z,1009.75
2023-04-16T07:44:41.353Z,1009.75
2023-04-16T07:45:41.509Z,1009.75
2023-04-16T07:46:46.785Z,1009.76
2023-04-16T07:47:41.434Z,1009.75
2023-04-16T07:48:41.372Z,1009.78
2023-04-16T07:49:41.324Z,1009.79
2023-04-16T07:50:41.359Z,1009.76
2023-04-16T07:51:41.687Z,1009.79
2023-04-16T07:52:41.299Z,1009.80
2023-04-16T07:53:41.280Z,1009.82
2023-04-16T07:54:41.273Z,1009.82
2023-04-16T07:55:41.271Z,1009.82
2023-04-16T07:56:41.247Z,1009.84
2023-04-16T07:57:41.250Z,1009.87
2023-04-16T07:58:41.266Z,1009.93
2023-04-16T07:59:41.235Z,1009.91
2023-04-16T08:00:41.200Z,1009.92
2023-04-16T08:01:41.226Z,1009.93
2023-04-16T08:02:41.336Z,1009.98
2023-04-16T08:03:41.531Z,1009.97
2023-04-16T08:04:41.489Z,1009.95
2023-04-16T08:05:41.168Z,1009.95
2023-04-16T08:06:41.231Z,1009.99
2023-04-16T08:07:41.151Z,1009.94
2023-04-16T08:08:41.107Z,1009.97
2023-04-16T08:09:41.109Z,1010.05
2023-04-16T08:10:41.129Z,1009.99
2023-04-16T08:11:41.085Z,1010.05
2023-04-16T08:12:41.100Z,1010.05
2023-04-16T08:13:41.049Z,1010.05
2023-04-16T08:14:41.086Z,1010.06
2023-04-16T08:15:41.085Z,1010.07
2023-04-16T08:16:41.076Z,1010.06
2023-04-16T08:17:41.133Z,1010.10
2023-04-16T08:18:41.052Z,1010.09
2023-04-16T08:19:40.999Z,1010.09
2023-04-16T08:20:41.062Z,1010.16
2023-04-16T08:21:40.996Z,1010.11
2023-04-16T08:22:40.971Z,1010.14
2023-04-16T08:23:41.221Z,1010.08
2023-04-16T08:24:40.965Z,1010.13
2023-04-16T08:25:40.959Z,1010.12
2023-04-16T08:26:40.977Z,1010.14
2023-04-16T08:27:41.587Z,1010.14
2023-04-16T08:28:40.877Z,1010.16
2023-04-16T08:29:40.952Z,1010.17
2023-04-16T08:30:40.963Z,1010.17
2023-04-16T08:31:40.907Z,1010.20
2023-04-16T08:32:40.886Z,1010.21
2023-04-16T08:33:40.873Z,1010.23
2023-04-16T08:34:40.850Z,1010.21
2023-04-16T08:35:40.868Z,1010.22
2023-04-16T08:36:40.828Z,1010.20
2023-04-16T08:37:40.801Z,1010.21
2023-04-16T08:38:40.817Z,1010.22
2023-04-16T08:39:40.842Z,1010.22
2023-04-16T08:40:40.784Z,1010.19
2023-04-16T08:41:40.793Z,1010.23
2023-04-16T08:42:40.810Z,1010.23
2023-04-16T08:43:40.798Z,1010.24
2023-04-16T08:44:40.753Z,1010.27
2023-04-16T08:45:40.734Z,1010.31
2023-04-16T08:46:40.880Z,1010.29
2023-04-16T08:47:41.157Z,1010.26
2023-04-16T08:48:40.691Z,1010.30
2023-04-16T08:49:40.700Z,1010.33
2023-04-16T08:50:40.711Z,1010.32
2023-04-16T08:51:40.696Z,1010.37
2023-04-16T08:52:40.651Z,1010.36
2023-04-16T08:53:40.743Z,1010.34
2023-04-16T08:54:40.657Z,1010.37
2023-04-16T08:55:40.663Z,1010.42
2023-04-16T08:56:42.872Z,1010.41
2023-04-16T08:57:40.646Z,1010.42
2023-04-16T08:58:40.602Z,1010.40
2023-04-16T08:59:40.636Z,1010.43
2023-04-16T09:00:40.608Z,1010.42
2023-04-16T09:01:40.613Z,1010.44
2023-04-16T09:02:40.819Z,1010.44
2023-04-16T09:03:40.739Z,1010.46
2023-04-16T09:04:40.741Z,1010.48
2023-04-16T09:05:40.601Z,1010.43
2023-04-16T09:06:40.518Z,1010.49
2023-04-16T09:07:40.491Z,1010.51
2023-04-16T09:08:40.506Z,1010.52
2023-04-16T09:09:40.503Z,1010.49
2023-04-16T09:10:40.504Z,1010.54
2023-04-16T09:11:40.519Z,1010.57
2023-04-16T09:12:40.459Z,1010.55
2023-04-16T09:13:40.542Z,1010.57
2023-04-16T09:14:41.170Z,1010.59
2023-04-16T09:15:40.540Z,1010.61
2023-04-16T09:16:40.544Z,1010.62
2023-04-16T09:17:40.481Z,1010.57
2023-04-16T09:18:40.573Z,1010.60
2023-04-16T09:19:40.402Z,1010.61
2023-04-16T09:20:40.369Z,1010.60
2023-04-16T09:21:40.552Z,1010.63
2023-04-16T09:22:40.381Z,1010.61
2023-04-16T09:23:40.418Z,1010.64
2023-04-16T09:24:40.448Z,1010.63
2023-04-16T09:25:40.464Z,1010.59
2023-04-16T09:26:40.378Z,1010.60
2023-04-16T09:27:40.377Z,1010.60
2023-04-16T09:28:40.323Z,1010.64
2023-04-16T09:29:40.282Z,1010.62
2023-04-16T09:30:40.554Z,1010.60
2023-04-16T09:31:40.313Z,1010.62
2023-04-16T09:32:40.360Z,1010.69
2023-04-16T09:33:40.300Z,1010.62
2023-04-16T09:34:40.275Z,1010.63
2023-04-16T09:35:40.535Z,1010.64
2023-04-16T09:36:40.500Z,1010.67
2023-04-16T09:37:41.167Z,1010.58
2023-04-16T09:38:40.195Z,1010.65
2023-04-16T09:39:40.165Z,1010.71
2023-04-16T09:40:40.230Z,1010.65
2023-04-16T09:41:40.132Z,1010.65
2023-04-16T09:42:40.173Z,1010.68
2023-04-16T09:43:40.123Z,1010.70
2023-04-16T09:44:40.196Z,1010.66
2023-04-16T09:45:40.164Z,1010.69
2023-04-16T09:46:40.685Z,1010.70
2023-04-16T09:47:40.160Z,1010.69
2023-04-16T09:48:40.095Z,1010.71
2023-04-16T09:49:40.205Z,1010.71
2023-04-16T09:50:40.100Z,1010.73
2023-04-16T09:51:40.934Z,1010.75
2023-04-16T09:52:40.045Z,1010.72
2023-04-16T09:53:40.030Z,1010.80
2023-04-16T09:54:40.210Z,1010.69
2023-04-16T09:55:40.098Z,1010.74
2023-04-16T09:56:40.062Z,1010.76
2023-04-16T09:57:39.976Z,1010.74
2023-04-16T09:58:39.977Z,1010.78
2023-04-16T09:59:40.011Z,1010.85
2023-04-16T10:00:43.614Z,1010.74
2023-04-16T10:01:40.036Z,1010.80
2023-04-16T10:02:40.711Z,1010.76
2023-04-16T10:03:40.426Z,1010.81
2023-04-16T10:04:40.210Z,1010.81
2023-04-16T10:05:39.929Z,1010.81
2023-04-16T10:06:40.029Z,1010.84
2023-04-16T10:07:39.882Z,1010.86
2023-04-16T10:08:39.891Z,1010.87
2023-04-16T10:09:39.893Z,1010.84
2023-04-16T10:10:39.888Z,1010.85
2023-04-16T10:11:39.852Z,1010.88
2023-04-16T10:12:39.845Z,1010.90
2023-04-16T10:13:39.853Z,1010.89
2023-04-16T10:14:39.861Z,1010.94
2023-04-16T10:15:39.868Z,1010.94
2023-04-16T10:16:39.917Z,1010.92
2023-04-16T10:17:39.946Z,1010.95
2023-04-16T10:18:39.760Z,1010.96
2023-04-16T10:19:39.783Z,1010.96
2023-04-16T10:20:39.762Z,1010.92
2023-04-16T10:21:39.824Z,1010.97
2023-04-16T10:22:39.794Z,1010.96
2023-04-16T10:23:39.755Z,1010.99
2023-04-16T10:24:39.737Z,1010.96
2023-04-16T10:25:39.824Z,1011.01
2023-04-16T10:26:39.698Z,1010.96
2023-04-16T10:27:39.782Z,1011.00
2023-04-16T10:28:39.684Z,1010.99
2023-04-16T10:29:39.729Z,1011.02
2023-04-16T10:30:39.761Z,1011.04
2023-04-16T10:31:39.682Z,1011.03
2023-04-16T10:32:39.733Z,1011.03
2023-04-16T10:33:39.635Z,1011.01
2023-04-16T10:34:39.643Z,1011.03
2023-04-16T10:35:39.621Z,1011.04
2023-04-16T10:36:39.613Z,1011.05
2023-04-16T10:37:40.196Z,1011.06
2023-04-16T10:38:39.630Z,1011.05
2023-04-16T10:39:39.580Z,1011.04
2023-04-16T10:40:39.618Z,1011.05
2023-04-16T10:41:39.598Z,1011.04
2023-04-16T10:42:39.987Z,1011.07
2023-04-16T10:43:39.565Z,1011.10
2023-04-16T10:44:40.864Z,1011.09
2023-04-16T10:45:39.533Z,1011.11
2023-04-16T10:46:39.564Z,1011.11
2023-04-16T10:47:39.527Z,1011.15
2023-04-16T10:48:49.940Z,1011.12
2023-04-16T10:49:39.472Z,1011.13
2023-04-16T10:50:39.485Z,1011.14
2023-04-16T10:51:39.508Z,1011.12
2023-04-16T10:52:39.599Z,1011.23
2023-04-16T10:53:39.432Z,1011.07
2023-04-16T10:54:39.416Z,1011.07
2023-04-16T10:55:39.441Z,1011.11
2023-04-16T10:56:39.427Z,1011.04
2023-04-16T10:57:39.382Z,1011.09
2023-04-16T10:58:39.401Z,1011.09
2023-04-16T10:59:39.374Z,1011.12
2023-04-16T11:00:39.353Z,1011.11
2023-04-16T11:01:39.482Z,1011.13
2023-04-16T11:02:39.579Z,1011.15
2023-04-16T11:03:39.512Z,1011.19
2023-04-16T11:04:39.421Z,1011.14
2023-04-16T11:05:39.312Z,1011.16
2023-04-16T11:06:39.312Z,1011.13
2023-04-16T11:07:39.312Z,1011.13
2023-04-16T11:08:53.327Z,1011.13
2023-04-16T11:09:39.287Z,1011.13
2023-04-16T11:10:39.276Z,1011.19
2023-04-16T11:11:39.300Z,1011.14
2023-04-16T11:12:39.283Z,1011.16
2023-04-16T11:13:39.229Z,1011.13
2023-04-16T11:14:39.221Z,1011.17
2023-04-16T11:15:39.294Z,1011.13
2023-04-16T11:16:39.177Z,1011.11
2023-04-16T11:17:39.423Z,1011.13
2023-04-16T11:18:39.206Z,1011.11
2023-04-16T11:19:39.196Z,1011.08
2023-04-16T11:20:39.171Z,1011.16
2023-04-16T11:21:39.185Z,1011.08
2023-04-16T11:22:39.161Z,1011.09
2023-04-16T11:23:39.138Z,1011.11
2023-04-16T11:24:39.128Z,1011.06
2023-04-16T11:25:39.128Z,1011.10
2023-04-16T11:26:39.119Z,1011.06
2023-04-16T11:27:39.071Z,1011.06
2023-04-16T11:28:39.123Z,1011.07
2023-04-16T11:29:39.094Z,1011.10
2023-04-16T11:30:39.072Z,1011.11
2023-04-16T11:31:39.225Z,1011.09
2023-04-16T11:32:39.035Z,1011.08
2023-04-16T11:33:39.076Z,1011.10
2023-04-16T11:34:39.013Z,1011.12
2023-04-16T11:35:39.058Z,1011.13
2023-04-16T11:36:38.991Z,1011.12
2023-04-16T11:37:39.012Z,1011.14
2023-04-16T11:38:38.976Z,1011.12
2023-04-16T11:39:38.952Z,1011.21
2023-04-16T11:40:39.002Z,1011.16
2023-04-16T11:41:38.965Z,1011.14
2023-04-16T11:42:39.009Z,1011.16
2023-04-16T11:43:38.922Z,1011.12
2023-04-16T11:44:38.926Z,1011.16
2023-04-16T11:45:38.957Z,1011.15
2023-04-16T11:46:38.931Z,1011.12
2023-04-16T11:47:39.085Z,1011.14
2023-04-16T11:48:38.862Z,1011.09
2023-04-16T11:49:38.878Z,1011.10
2023-04-16T11:50:38.922Z,1011.12
2023-04-16T11:51:38.824Z,1011.12
2023-04-16T11:52:38.900Z,1011.12
2023-04-16T11:53:38.855Z,1011.13
2023-04-16T11:54:38.817Z,1011.12
2023-04-16T11:55:38.824Z,1011.12
2023-04-16T11:56:38.791Z,1011.12
2023-04-16T11:57:38.846Z,1011.12
2023-04-16T11:58:38.782Z,1011.12
2023-04-16T12:00:01.362Z,1011.13
2023-04-16T12:00:38.747Z,1011.14
2023-04-16T12:01:38.743Z,1011.12
2023-04-16T12:02:38.902Z,1011.15
2023-04-16T12:03:38.961Z,1011.13
2023-04-16T12:04:38.840Z,1011.12
2023-04-16T12:05:38.865Z,1011.12